createdAt,value
2019-04-16T00:02:00.338Z,80.56
2019-04-16T00:04:31.666Z,80.52
2019-04-16T00:07:02.977Z,80.82
2019-04-16T00:09:46.387Z,80.48
2019-04-16T00:12:29.732Z,80.56
2019-04-16T00:15:00.864Z,80.48
2019-04-16T00:17:30.543Z,80.45
2019-04-16T00:20:00.379Z,80.22
2019-04-16T00:22:41.204Z,80.42
2019-04-16T00:25:11.112Z,80.50
2019-04-16T00:27:40.806Z,80.41
2019-04-16T00:30:10.669Z,80.70
2019-04-16T00:32:42.559Z,80.56
2019-04-16T00:35:15.493Z,80.05
2019-04-16T00:37:43.438Z,80.16
2019-04-16T00:40:13.401Z,80.29
2019-04-16T00:42:43.159Z,80.14
2019-04-16T00:45:13.173Z,79.70
2019-04-16T00:47:42.957Z,79.79
2019-04-16T00:50:13.040Z,79.23
2019-04-16T00:52:45.958Z,79.46
2019-04-16T00:55:15.768Z,79.53
2019-04-16T00:57:48.428Z,79.69
2019-04-16T01:00:17.311Z,79.36
2019-04-16T01:02:47.181Z,79.25
2019-04-16T01:05:16.904Z,79.89
2019-04-16T01:07:46.719Z,79.48
2019-04-16T01:10:16.518Z,79.81
2019-04-16T01:12:46.276Z,79.74
2019-04-16T01:15:16.126Z,79.25
2019-04-16T01:17:45.831Z,79.67
2019-04-16T01:20:15.747Z,78.83
2019-04-16T01:22:46.827Z,79.08
2019-04-16T01:25:16.944Z,79.23
2019-04-16T01:27:48.318Z,79.13
2019-04-16T01:30:19.754Z,79.20
2019-04-16T01:33:06.244Z,79.22
2019-04-16T01:35:40.686Z,79.60
2019-04-16T01:38:28.584Z,79.17
2019-04-16T01:41:06.233Z,79.24
2019-04-16T01:43:36.070Z,79.36
2019-04-16T01:46:06.171Z,79.27
2019-04-16T01:48:38.603Z,79.35
2019-04-16T01:51:07.467Z,79.24
2019-04-16T01:53:37.299Z,79.75
2019-04-16T01:56:07.057Z,79.34
2019-04-16T01:58:36.785Z,79.38
2019-04-16T02:01:08.082Z,79.66
2019-04-16T02:03:38.183Z,79.78
2019-04-16T02:06:08.062Z,79.41
2019-04-16T02:08:37.792Z,79.46
2019-04-16T02:11:10.666Z,79.53
2019-04-16T02:13:39.467Z,79.85
2019-04-16T02:16:09.302Z,79.94
2019-04-16T02:18:39.110Z,79.28
2019-04-16T02:21:10.701Z,79.07
2019-04-16T02:23:40.469Z,79.51
2019-04-16T02:26:10.240Z,79.39
2019-04-16T02:28:40.046Z,79.11
2019-04-16T02:31:15.713Z,78.81
2019-04-16T02:33:41.525Z,78.66
2019-04-16T02:36:11.259Z,78.14
2019-04-16T02:38:46.363Z,78.35
2019-04-16T02:41:12.559Z,78.12
2019-04-16T02:43:42.499Z,78.18
2019-04-16T02:46:12.429Z,78.24
2019-04-16T02:48:50.258Z,78.30
2019-04-16T02:51:18.564Z,78.44
2019-04-16T02:54:07.417Z,78.62
2019-04-16T02:56:38.930Z,78.50
2019-04-16T02:59:13.820Z,78.76
2019-04-16T03:01:57.428Z,78.91
2019-04-16T03:04:28.919Z,79.08
2019-04-16T03:07:02.754Z,78.83
2019-04-16T03:09:30.377Z,79.07
2019-04-16T03:12:00.193Z,79.01
2019-04-16T03:14:30.801Z,79.53
2019-04-16T03:17:02.393Z,79.41
2019-04-16T03:19:33.839Z,79.26
2019-04-16T03:22:03.835Z,79.40
2019-04-16T03:24:33.601Z,79.39
2019-04-16T03:27:05.215Z,79.89
2019-04-16T03:29:35.353Z,79.45
2019-04-16T03:32:05.252Z,79.17
2019-04-16T03:34:35.121Z,79.20
2019-04-16T03:37:05.097Z,79.13
2019-04-16T03:39:34.984Z,78.95
2019-04-16T03:42:04.910Z,78.76
2019-04-16T03:44:37.303Z,79.03
2019-04-16T03:47:06.221Z,78.97
2019-04-16T03:49:36.036Z,79.15
2019-04-16T03:52:08.763Z,79.14
2019-04-16T03:54:38.312Z,79.00
2019-04-16T03:57:08.146Z,79.08
2019-04-16T03:59:40.000Z,79.25
2019-04-16T04:02:09.566Z,79.00
2019-04-16T04:04:39.328Z,79.35
2019-04-16T04:07:12.579Z,79.71
2019-04-16T04:09:40.602Z,80.25
2019-04-16T04:12:13.029Z,80.31
2019-04-16T04:14:42.040Z,80.05
2019-04-16T04:17:12.063Z,79.72
2019-04-16T04:19:43.497Z,80.00
2019-04-16T04:22:13.354Z,79.84
2019-04-16T04:24:43.286Z,79.78
2019-04-16T04:27:16.772Z,79.87
2019-04-16T04:29:46.284Z,79.90
2019-04-16T04:32:16.085Z,80.20
2019-04-16T04:34:48.605Z,80.00
2019-04-16T04:37:17.762Z,79.76
2019-04-16T04:39:47.619Z,80.00
2019-04-16T04:42:19.373Z,79.88
2019-04-16T04:44:48.874Z,79.23
2019-04-16T04:47:20.149Z,79.12
2019-04-16T04:49:50.125Z,78.92
2019-04-16T04:52:19.916Z,78.53
2019-04-16T04:54:51.388Z,78.30
2019-04-16T04:57:21.216Z,78.05
2019-04-16T04:59:50.997Z,78.24
2019-04-16T05:02:20.828Z,77.83
2019-04-16T05:04:52.575Z,77.54
2019-04-16T05:07:25.753Z,77.44
2019-04-16T05:09:54.695Z,76.31
2019-04-16T05:12:24.556Z,76.42
2019-04-16T05:14:57.800Z,76.11
2019-04-16T05:17:27.574Z,76.22
2019-04-16T05:19:57.339Z,75.64
2019-04-16T05:22:27.184Z,75.44
2019-04-16T05:25:01.424Z,75.61
2019-04-16T05:27:29.693Z,76.06
2019-04-16T05:29:59.818Z,75.91
2019-04-16T05:32:34.047Z,75.99
2019-04-16T05:35:01.120Z,76.25
2019-04-16T05:37:30.998Z,76.49
2019-04-16T05:40:00.798Z,76.77
2019-04-16T05:42:30.731Z,76.84
2019-04-16T05:45:02.488Z,76.36
2019-04-16T05:47:31.956Z,76.87
2019-04-16T05:50:01.733Z,76.33
2019-04-16T05:52:35.310Z,76.65
2019-04-16T05:55:07.506Z,76.35
2019-04-16T05:57:38.884Z,75.83
2019-04-16T06:00:12.244Z,76.18
2019-04-16T06:02:43.280Z,75.97
2019-04-16T06:05:13.521Z,76.16
2019-04-16T06:07:43.354Z,75.56
2019-04-16T06:10:16.604Z,75.71
2019-04-16T06:13:03.056Z,74.65
2019-04-16T06:15:53.936Z,70.62
2019-04-16T06:18:31.194Z,66.01
2019-04-16T06:21:18.829Z,61.55
2019-04-16T06:24:03.126Z,60.99
2019-04-16T06:26:48.574Z,61.23
2019-04-16T06:29:35.998Z,60.47
2019-04-16T06:32:08.439Z,62.71
2019-04-16T06:34:56.692Z,62.71
2019-04-16T06:37:40.171Z,62.83
2019-04-16T06:40:31.671Z,56.71
2019-04-16T06:43:06.567Z,57.17
2019-04-16T06:45:38.016Z,59.00
2019-04-16T06:48:12.813Z,61.11
2019-04-16T06:50:42.352Z,60.26
2019-04-16T06:53:23.511Z,59.54
2019-04-16T06:56:11.947Z,60.64
2019-04-16T06:58:51.365Z,61.69
2019-04-16T07:01:28.047Z,64.01
2019-04-16T07:03:59.940Z,65.19
2019-04-16T07:06:46.838Z,65.02
2019-04-16T07:09:40.734Z,67.40
2019-04-16T07:12:03.250Z,67.83
2019-04-16T07:14:35.976Z,66.67
2019-04-16T07:17:04.364Z,66.44
2019-04-16T07:19:34.024Z,66.73
2019-04-16T07:22:03.927Z,67.33
2019-04-16T07:24:36.797Z,68.04
2019-04-16T07:27:05.280Z,67.21
2019-04-16T07:29:36.735Z,67.58
2019-04-16T07:32:23.391Z,68.10
2019-04-16T07:34:54.714Z,66.72
2019-04-16T07:37:43.782Z,66.07
2019-04-16T07:40:31.572Z,65.93
2019-04-16T07:43:15.375Z,65.70
2019-04-16T07:45:44.878Z,64.58
2019-04-16T07:48:22.687Z,64.34
2019-04-16T07:51:01.562Z,63.86
2019-04-16T07:53:38.435Z,64.04
2019-04-16T07:56:18.929Z,63.99
2019-04-16T07:58:48.699Z,64.17
2019-04-16T08:01:18.450Z,64.29
2019-04-16T08:03:48.209Z,63.20
2019-04-16T08:06:18.036Z,63.79
2019-04-16T08:08:47.774Z,63.25
2019-04-16T08:11:17.477Z,64.31
2019-04-16T08:13:47.221Z,63.50
2019-04-16T08:16:16.916Z,63.38
2019-04-16T08:18:52.443Z,63.08
2019-04-16T08:21:22.972Z,63.29
2019-04-16T08:23:54.328Z,62.35
2019-04-16T08:26:24.034Z,61.42
2019-04-16T08:28:53.712Z,61.46
2019-04-16T08:31:25.248Z,61.11
2019-04-16T08:33:54.935Z,61.87
2019-04-16T08:36:24.711Z,62.67
2019-04-16T08:38:54.441Z,60.60
2019-04-16T08:41:24.207Z,62.32
2019-04-16T08:43:53.924Z,62.15
2019-04-16T08:46:23.629Z,61.87
2019-04-16T08:48:54.383Z,60.86
2019-04-16T08:51:30.761Z,61.10
2019-04-16T08:54:02.669Z,61.33
2019-04-16T08:56:32.350Z,60.64
2019-04-16T08:59:02.094Z,60.48
2019-04-16T09:01:33.497Z,60.45
2019-04-16T09:04:03.358Z,61.18
2019-04-16T09:06:33.094Z,60.70
2019-04-16T09:09:13.521Z,60.81
2019-04-16T09:11:42.510Z,61.24
2019-04-16T09:14:12.269Z,62.47
2019-04-16T09:16:46.149Z,62.49
2019-04-16T09:19:17.462Z,61.93
2019-04-16T09:21:47.145Z,61.55
2019-04-16T09:24:30.397Z,62.21
2019-04-16T09:27:14.236Z,60.69
2019-04-16T09:30:01.729Z,61.25
2019-04-16T09:32:38.502Z,60.72
2019-04-16T09:35:25.644Z,60.42
2019-04-16T09:38:02.677Z,60.31
2019-04-16T09:40:50.011Z,59.82
2019-04-16T09:43:24.165Z,60.55
2019-04-16T09:45:53.815Z,60.99
2019-04-16T09:48:23.504Z,59.88
2019-04-16T09:50:53.198Z,59.69
2019-04-16T09:53:33.480Z,58.53
2019-04-16T09:55:54.314Z,59.35
2019-04-16T09:58:25.673Z,59.06
2019-04-16T10:01:08.862Z,58.42
2019-04-16T10:03:40.209Z,58.44
2019-04-16T10:06:09.942Z,58.11
2019-04-16T10:08:44.545Z,59.42
2019-04-16T10:11:10.994Z,59.58
2019-04-16T10:13:40.719Z,60.11
2019-04-16T10:16:13.573Z,60.16
2019-04-16T10:18:42.204Z,60.01
2019-04-16T10:21:11.943Z,58.67
2019-04-16T10:23:45.961Z,58.19
2019-04-16T10:26:16.243Z,58.12
2019-04-16T10:28:47.633Z,58.31
2019-04-16T10:31:18.967Z,59.19
2019-04-16T10:33:48.638Z,58.02
2019-04-16T10:36:18.329Z,58.17
2019-04-16T10:39:04.919Z,57.99
2019-04-16T10:41:36.334Z,58.24
2019-04-16T10:44:10.721Z,58.57
2019-04-16T10:46:42.035Z,57.73
2019-04-16T10:49:29.963Z,57.05
2019-04-16T10:52:03.985Z,57.72
2019-04-16T10:54:41.449Z,57.54
2019-04-16T10:57:29.184Z,57.69
2019-04-16T11:00:06.307Z,56.64
2019-04-16T11:02:43.368Z,56.98
2019-04-16T11:05:26.877Z,56.02
2019-04-16T11:07:58.191Z,56.74
2019-04-16T11:10:27.987Z,55.87
2019-04-16T11:12:57.685Z,56.06
2019-04-16T11:15:27.907Z,56.32
2019-04-16T11:17:57.570Z,56.34
2019-04-16T11:20:27.346Z,56.16
2019-04-16T11:22:57.196Z,55.99
2019-04-16T11:25:26.841Z,56.33
2019-04-16T11:27:56.541Z,55.94
2019-04-16T11:30:30.663Z,55.43
2019-04-16T11:33:00.459Z,55.25
2019-04-16T11:35:33.363Z,55.60
2019-04-16T11:38:03.201Z,54.54
2019-04-16T11:40:32.986Z,55.70
2019-04-16T11:43:03.170Z,54.91
2019-04-16T11:45:32.983Z,54.71
2019-04-16T11:48:04.944Z,54.84
2019-04-16T11:50:36.160Z,55.95
2019-04-16T11:53:07.863Z,55.62
2019-04-16T11:55:37.830Z,55.34
2019-04-16T11:58:09.341Z,55.71
2019-04-16T12:00:43.536Z,56.16
2019-04-16T12:03:20.666Z,57.53
2019-04-16T12:05:51.990Z,57.59
2019-04-16T12:08:23.365Z,56.78
2019-04-16T12:11:03.938Z,57.54
2019-04-16T12:13:38.328Z,56.93
2019-04-16T12:16:26.131Z,55.58
2019-04-16T12:19:00.308Z,56.26
2019-04-16T12:21:48.085Z,56.07
2019-04-16T12:24:19.386Z,57.23
2019-04-16T12:26:56.672Z,57.32
2019-04-16T12:29:34.032Z,56.89
2019-04-16T12:32:05.729Z,58.29
2019-04-16T12:34:43.163Z,57.57
2019-04-16T12:37:20.343Z,58.42
2019-04-16T12:39:57.567Z,58.71
2019-04-16T12:42:29.043Z,58.04
2019-04-16T12:45:00.453Z,58.64
2019-04-16T12:47:31.967Z,57.54
2019-04-16T12:50:12.420Z,57.06
2019-04-16T12:52:47.000Z,56.12
2019-04-16T12:55:18.600Z,54.73
2019-04-16T12:58:18.777Z,54.31
2019-04-16T13:00:48.076Z,54.00
2019-04-16T13:03:36.528Z,54.97
2019-04-16T13:06:20.237Z,55.09
2019-04-16T13:09:30.234Z,54.16
2019-04-16T13:12:10.099Z,55.19
2019-04-16T13:15:01.103Z,55.78
2019-04-16T13:17:47.884Z,56.52
2019-04-16T13:20:34.617Z,56.14
2019-04-16T13:23:22.431Z,56.76
2019-04-16T13:25:53.765Z,57.73
2019-04-16T13:28:25.059Z,57.78
2019-04-16T13:30:54.832Z,57.54
2019-04-16T13:33:24.575Z,57.56
2019-04-16T13:35:54.280Z,58.82
2019-04-16T13:38:37.578Z,57.99
2019-04-16T13:41:06.898Z,58.39
2019-04-16T13:43:38.239Z,58.12
2019-04-16T13:46:08.200Z,57.78
2019-04-16T13:48:42.405Z,56.73
2019-04-16T13:51:18.502Z,57.40
2019-04-16T13:53:46.217Z,56.55
2019-04-16T13:56:18.667Z,57.86
2019-04-16T13:59:02.138Z,58.21
2019-04-16T14:01:48.855Z,59.61
2019-04-16T14:04:18.539Z,59.04
2019-04-16T14:06:48.214Z,58.33
2019-04-16T14:09:18.021Z,58.04
2019-04-16T14:11:50.973Z,57.04
2019-04-16T14:14:28.837Z,57.77
2019-04-16T14:17:08.370Z,58.35
2019-04-16T14:19:30.041Z,58.25
2019-04-16T14:21:59.812Z,57.95
2019-04-16T14:24:29.586Z,58.21
2019-04-16T14:26:59.281Z,58.00
2019-04-16T14:29:29.030Z,57.67
2019-04-16T14:31:58.888Z,57.90
2019-04-16T14:34:38.055Z,57.44
2019-04-16T14:37:07.893Z,57.31
2019-04-16T14:39:39.290Z,57.26
2019-04-16T14:42:09.129Z,57.10
2019-04-16T14:44:43.583Z,57.27
2019-04-16T14:47:13.320Z,57.57
2019-04-16T14:49:43.051Z,57.84
2019-04-16T14:52:12.904Z,58.03
2019-04-16T14:54:47.183Z,58.15
2019-04-16T14:57:19.066Z,57.03
2019-04-16T15:00:05.690Z,57.20
2019-04-16T15:02:42.819Z,57.70
2019-04-16T15:05:15.855Z,57.96
2019-04-16T15:07:56.203Z,56.97
2019-04-16T15:10:36.475Z,57.59
2019-04-16T15:13:11.144Z,57.63
2019-04-16T15:15:48.472Z,58.11
2019-04-16T15:18:22.627Z,57.93
2019-04-16T15:21:12.406Z,58.04
2019-04-16T15:24:01.888Z,57.79
2019-04-16T15:26:35.597Z,57.18
2019-04-16T15:29:07.080Z,57.26
2019-04-16T15:31:41.303Z,57.10
2019-04-16T15:34:18.647Z,57.21
2019-04-16T15:36:53.365Z,56.67
2019-04-16T15:39:26.107Z,56.52
2019-04-16T15:42:17.371Z,56.79
2019-04-16T15:44:47.137Z,56.41
2019-04-16T15:47:21.590Z,56.72
2019-04-16T15:49:55.830Z,56.68
2019-04-16T15:52:46.225Z,56.51
2019-04-16T15:55:24.562Z,56.14
2019-04-16T15:58:08.110Z,56.55
2019-04-16T16:00:47.333Z,56.72
2019-04-16T16:03:27.807Z,56.63
2019-04-16T16:06:02.232Z,56.67
2019-04-16T16:08:42.737Z,56.47
2019-04-16T16:11:19.842Z,56.48
2019-04-16T16:13:56.650Z,57.26
2019-04-16T16:16:41.082Z,57.37
2019-04-16T16:18:58.643Z,57.70
2019-04-16T16:21:28.448Z,57.13
2019-04-16T16:23:58.304Z,57.87
2019-04-16T16:26:28.208Z,57.66
2019-04-16T16:28:57.952Z,57.55
2019-04-16T16:31:32.085Z,57.90
2019-04-16T16:33:59.080Z,58.40
2019-04-16T16:36:28.776Z,58.75
2019-04-16T16:38:58.504Z,57.90
2019-04-16T16:41:28.158Z,58.40
2019-04-16T16:43:58.056Z,57.92
2019-04-16T16:46:55.703Z,58.52
2019-04-16T16:49:13.120Z,59.29
2019-04-16T16:51:44.520Z,59.26
2019-04-16T16:54:19.264Z,59.34
2019-04-16T16:56:50.600Z,59.88
2019-04-16T16:59:24.947Z,59.92
2019-04-16T17:01:56.242Z,59.86
2019-04-16T17:04:27.582Z,60.03
2019-04-16T17:06:57.253Z,60.01
2019-04-16T17:09:30.400Z,60.05
2019-04-16T17:12:00.013Z,60.66
2019-04-16T17:14:29.822Z,60.42
2019-04-16T17:17:11.798Z,60.88
2019-04-16T17:19:30.874Z,61.25
2019-04-16T17:22:00.643Z,61.07
2019-04-16T17:24:30.340Z,61.09
2019-04-16T17:27:00.063Z,61.19
2019-04-16T17:29:29.806Z,60.86
2019-04-16T17:31:59.505Z,61.51
2019-04-16T17:34:29.443Z,61.71
2019-04-16T17:37:00.677Z,61.92
2019-04-16T17:39:42.622Z,62.54
2019-04-16T17:42:16.948Z,62.57
2019-04-16T17:44:48.262Z,62.86
2019-04-16T17:47:35.654Z,62.86
2019-04-16T17:50:07.806Z,63.38
2019-04-16T17:52:47.928Z,63.47
2019-04-16T17:55:25.093Z,63.76
2019-04-16T17:58:08.614Z,63.62
2019-04-16T18:00:42.759Z,63.98
2019-04-16T18:03:25.915Z,64.69
2019-04-16T18:05:57.242Z,65.21
2019-04-16T18:08:43.513Z,65.36
2019-04-16T18:11:14.830Z,65.43
2019-04-16T18:13:49.288Z,65.73
2019-04-16T18:16:20.743Z,66.35
2019-04-16T18:19:03.949Z,66.58
2019-04-16T18:21:42.682Z,67.04
2019-04-16T18:24:20.237Z,67.25
2019-04-16T18:26:52.213Z,67.32
2019-04-16T18:29:23.560Z,67.41
2019-04-16T18:32:06.833Z,67.21
2019-04-16T18:34:44.393Z,67.36
2019-04-16T18:37:32.283Z,67.67
2019-04-16T18:40:21.553Z,67.96
2019-04-16T18:43:04.855Z,67.70
2019-04-16T18:45:55.622Z,67.99
2019-04-16T18:48:31.027Z,67.67
2019-04-16T18:51:01.959Z,67.42
2019-04-16T18:53:31.750Z,66.98
2019-04-16T18:56:01.433Z,67.22
2019-04-16T18:58:31.102Z,67.03
2019-04-16T19:01:04.866Z,66.76
2019-04-16T19:03:34.629Z,66.51
2019-04-16T19:06:05.423Z,66.55
2019-04-16T19:08:42.091Z,66.44
2019-04-16T19:11:06.558Z,66.62
2019-04-16T19:13:36.305Z,66.03
2019-04-16T19:16:06.094Z,66.13
2019-04-16T19:18:35.842Z,65.85
2019-04-16T19:21:05.854Z,65.40
2019-04-16T19:23:35.558Z,65.15
2019-04-16T19:26:06.086Z,65.22
2019-04-16T19:28:36.303Z,64.69
2019-04-16T19:31:07.354Z,64.46
2019-04-16T19:33:38.472Z,63.47
2019-04-16T19:36:08.469Z,63.38
2019-04-16T19:38:39.519Z,63.36
2019-04-16T19:41:09.532Z,62.70
2019-04-16T19:43:39.320Z,62.72
2019-04-16T19:46:09.068Z,61.49
2019-04-16T19:48:38.770Z,61.69
2019-04-16T19:51:09.120Z,61.34
2019-04-16T19:53:38.797Z,61.10
2019-04-16T19:56:08.463Z,60.96
2019-04-16T19:58:38.185Z,60.52
2019-04-16T20:01:12.000Z,59.86
2019-04-16T20:03:43.294Z,59.40
2019-04-16T20:06:11.767Z,59.40
2019-04-16T20:08:41.450Z,57.91
2019-04-16T20:11:11.594Z,58.19
2019-04-16T20:13:41.324Z,58.00
2019-04-16T20:16:11.074Z,57.96
2019-04-16T20:18:50.770Z,57.35
2019-04-16T20:21:12.144Z,57.28
2019-04-16T20:23:41.882Z,57.79
2019-04-16T20:26:11.643Z,57.88
2019-04-16T20:28:41.319Z,57.55
2019-04-16T20:31:11.009Z,57.78
2019-04-16T20:33:40.694Z,57.55
2019-04-16T20:36:10.408Z,57.09
2019-04-16T20:38:40.093Z,56.86
2019-04-16T20:41:09.794Z,56.68
2019-04-16T20:43:39.452Z,56.69
2019-04-16T20:46:09.147Z,56.98
2019-04-16T20:48:38.834Z,56.30
2019-04-16T20:51:08.535Z,55.79
2019-04-16T20:53:41.298Z,55.92
2019-04-16T20:56:10.769Z,55.72
2019-04-16T20:58:40.542Z,55.85
2019-04-16T21:01:10.284Z,55.88
2019-04-16T21:03:39.973Z,55.41
2019-04-16T21:06:09.778Z,55.53
2019-04-16T21:08:39.440Z,55.44
2019-04-16T21:11:09.715Z,55.38
2019-04-16T21:13:46.942Z,55.56
2019-04-16T21:16:17.013Z,55.51
2019-04-16T21:18:46.704Z,55.83
2019-04-16T21:21:16.385Z,55.65
2019-04-16T21:23:46.083Z,55.83
2019-04-16T21:26:16.542Z,56.32
2019-04-16T21:28:58.525Z,56.91
2019-04-16T21:31:30.613Z,56.94
2019-04-16T21:34:01.960Z,57.37
2019-04-16T21:36:33.802Z,57.61
2019-04-16T21:39:08.335Z,57.87
2019-04-16T21:41:39.539Z,58.15
2019-04-16T21:44:12.953Z,58.50
2019-04-16T21:46:40.741Z,58.53
2019-04-16T21:49:10.592Z,58.47
2019-04-16T21:51:41.904Z,59.18
2019-04-16T21:54:11.615Z,59.41
2019-04-16T21:56:41.290Z,59.41
2019-04-16T21:59:11.964Z,59.75
2019-04-16T22:01:43.352Z,59.84
2019-04-16T22:04:14.753Z,60.19
2019-04-16T22:06:44.519Z,60.21
2019-04-16T22:09:14.762Z,60.47
2019-04-16T22:11:44.523Z,60.54
2019-04-16T22:14:14.243Z,60.84
2019-04-16T22:16:43.907Z,61.20
2019-04-16T22:19:14.007Z,60.89
2019-04-16T22:21:44.650Z,61.71
2019-04-16T22:24:14.322Z,61.37
2019-04-16T22:26:44.081Z,61.42
2019-04-16T22:29:15.664Z,61.70
2019-04-16T22:31:45.157Z,61.75
2019-04-16T22:34:14.908Z,62.16
2019-04-16T22:36:44.657Z,62.42
2019-04-16T22:39:22.098Z,62.52
2019-04-16T22:41:59.319Z,62.71
2019-04-16T22:44:46.628Z,62.52
2019-04-16T22:47:27.065Z,63.18
2019-04-16T22:50:12.829Z,63.57
2019-04-16T22:52:28.132Z,63.30
2019-04-16T22:54:57.913Z,63.27
2019-04-16T22:57:30.914Z,63.36
2019-04-16T22:59:58.988Z,63.84
2019-04-16T23:02:30.509Z,63.64
2019-04-16T23:05:00.636Z,64.07
2019-04-16T23:07:30.457Z,64.64
2019-04-16T23:10:00.148Z,64.84
2019-04-16T23:12:29.874Z,64.71
2019-04-16T23:15:13.964Z,64.71
2019-04-16T23:17:46.024Z,65.23
2019-04-16T23:20:28.487Z,65.55
2019-04-16T23:22:47.679Z,65.86
2019-04-16T23:25:17.441Z,65.85
2019-04-16T23:27:47.126Z,66.08
2019-04-16T23:30:18.497Z,66.14
2019-04-16T23:32:48.282Z,66.59
2019-04-16T23:35:17.984Z,66.59
2019-04-16T23:37:47.657Z,67.02
2019-04-16T23:40:17.378Z,66.83
2019-04-16T23:42:50.404Z,66.83
2019-04-16T23:45:33.670Z,67.08
2019-04-16T23:51:07.307Z,67.68
2019-04-16T23:53:39.050Z,67.82
2019-04-16T23:56:20.629Z,68.02
2019-04-16T23:58:52.149Z,67.85
